Grand Forks Air Force Base Grand Forks US
ICAO: KRDR
IATA: RDR
Category: Medium
Scheduled Services: No

Elevation: 913 ft
TransAlt. 18000 ft.

Airport Communications:
APP/DEP:118.1
ATIS:27.345
CLNC DEL:119.15
GND:119.15
PMSV METRO:34.35
COMD POST:31.1
PTD:37.22
RDO:122.2
RED RIVER TWR:124.9

KRDR Zoom In..

Runways:

(A) RW 17 length 12351 ft width 150 ft
ILS 111.30 / hdg 174

(B) RW 35 length 12351 ft width 150 ft
ILS 109.90 / hdg 354

Location; KRDR
Day. 23 / Time. 00.05 Zulu
* Altimeter: 30.08
* Temperature: -04° c. -24.8°f.
* Wind from: 060° Speed 06 kn.
Dewpoint: -07° c.
Visibility: 10 Statute Miles.
Clouds: Overcast 1500 ft.

KRDR 230005Z 06006KT 10SM OVC015 M04/M07 A3008 RMK AO2A CIG 014 RWY17 SLPNO


Wind From 060°
Speed 06 kn.

YouTube Music Video
 
jpsmedia.com for Web Design  worldairports.se 2018   terms of use